Time;durP1;ratioP1;P1;durP2;ratioP2;P2;SDS_P1;SDS_P2;PMS_P1;PMS_P2;Temp;Humidity;BMP_temperature;BMP_pressure;BME280_temperature;BME280_humidity;BME280_pressure;Samples;Min_cycle;Max_cycle;Signal;HPM_P1;HPM_P2
2022/01/07 00:00:05;;;;;;;24.53;13.00;;;;;;;;;;763144;181;935067;-68
2022/01/07 00:02:31;;;;;;;16.63;13.07;;;;;;;;;;760395;182;919095;-67
2022/01/07 00:04:58;;;;;;;26.13;15.20;;;;;;;;;;766956;183;919133;-68
2022/01/07 00:07:24;;;;;;;20.40;13.90;;;;;;;;;;766253;180;919914;-68
2022/01/07 00:09:50;;;;;;;22.25;12.98;;;;;;;;;;767888;182;920315;-68
2022/01/07 00:12:19;;;;;;;19.80;12.23;;;;;;;;;;766595;179;919305;-68
2022/01/07 00:14:41;;;;;;;20.77;14.40;;;;;;;;;;767617;182;915410;-68
2022/01/07 00:17:11;;;;;;;23.40;12.90;;;;;;;;;;762568;182;917080;-68
2022/01/07 00:19:36;;;;;;;22.10;15.23;;;;;;;;;;762921;182;1017610;-69
2022/01/07 00:22:02;;;;;;;24.13;15.23;;;;;;;;;;771371;183;921042;-69
2022/01/07 00:24:28;;;;;;;21.42;14.65;;;;;;;;;;767066;182;912412;-69
2022/01/07 00:26:54;;;;;;;22.43;13.23;;;;;;;;;;765487;183;913338;-69
2022/01/07 00:29:20;;;;;;;21.83;13.50;;;;;;;;;;772336;183;912172;-69
2022/01/07 00:31:46;;;;;;;24.43;15.77;;;;;;;;;;762448;183;918457;-68
2022/01/07 00:34:12;;;;;;;27.07;14.73;;;;;;;;;;765548;183;920250;-69
2022/01/07 00:36:37;;;;;;;25.07;13.93;;;;;;;;;;767305;183;918246;-69
2022/01/07 00:39:03;;;;;;;22.60;14.00;;;;;;;;;;763293;184;920909;-69
2022/01/07 00:41:29;;;;;;;24.13;14.70;;;;;;;;;;759916;184;917917;-70
2022/01/07 00:43:56;;;;;;;24.30;14.83;;;;;;;;;;765278;182;920702;-68
2022/01/07 00:46:21;;;;;;;25.30;17.47;;;;;;;;;;767281;182;918688;-69
2022/01/07 00:48:47;;;;;;;36.38;20.70;;;;;;;;;;764328;182;920295;-69
2022/01/07 00:51:13;;;;;;;29.23;18.47;;;;;;;;;;766343;183;918999;-69
2022/01/07 00:53:38;;;;;;;27.40;17.50;;;;;;;;;;772361;181;918091;-68
2022/01/07 00:56:04;;;;;;;27.03;15.33;;;;;;;;;;763801;182;919514;-69
2022/01/07 00:58:30;;;;;;;24.03;14.03;;;;;;;;;;768739;182;1032576;-69
2022/01/07 01:00:56;;;;;;;29.43;15.43;;;;;;;;;;769149;182;919434;-67
2022/01/07 01:03:22;;;;;;;32.53;17.70;;;;;;;;;;765895;183;919236;-69
2022/01/07 01:05:49;;;;;;;33.50;19.87;;;;;;;;;;765403;183;919245;-69
2022/01/07 01:08:13;;;;;;;31.85;18.70;;;;;;;;;;767408;182;1020915;-69
2022/01/07 01:10:39;;;;;;;36.90;18.30;;;;;;;;;;773210;183;918520;-68
2022/01/07 01:13:05;;;;;;;34.17;19.13;;;;;;;;;;768335;183;919149;-69
2022/01/07 01:15:31;;;;;;;27.03;17.17;;;;;;;;;;766992;183;918656;-68
2022/01/07 01:17:57;;;;;;;28.13;16.77;;;;;;;;;;768980;183;918637;-69
2022/01/07 01:20:23;;;;;;;25.67;15.30;;;;;;;;;;762327;183;919505;-69
2022/01/07 01:22:49;;;;;;;24.80;15.30;;;;;;;;;;766157;182;1026486;-69
2022/01/07 01:25:14;;;;;;;22.30;13.00;;;;;;;;;;772034;180;919100;-68
2022/01/07 01:27:40;;;;;;;22.63;12.50;;;;;;;;;;764303;183;1020385;-69
2022/01/07 01:30:07;;;;;;;20.30;13.37;;;;;;;;;;767023;183;918952;-69
2022/01/07 01:32:33;;;;;;;21.90;12.57;;;;;;;;;;762248;183;918800;-68
2022/01/07 01:35:00;;;;;;;19.50;11.70;;;;;;;;;;770754;183;918451;-69
2022/01/07 01:37:26;;;;;;;24.60;14.80;;;;;;;;;;765055;182;919347;-69
2022/01/07 01:39:51;;;;;;;17.97;12.20;;;;;;;;;;767635;182;919530;-68
2022/01/07 01:42:17;;;;;;;23.23;13.70;;;;;;;;;;771458;183;918766;-69
2022/01/07 01:44:43;;;;;;;20.12;13.88;;;;;;;;;;767493;182;918509;-69
2022/01/07 01:47:09;;;;;;;21.73;12.07;;;;;;;;;;769082;182;918397;-69
2022/01/07 01:49:35;;;;;;;22.53;13.23;;;;;;;;;;772348;182;918669;-69
2022/01/07 01:52:01;;;;;;;25.03;13.90;;;;;;;;;;763991;183;919605;-69
2022/01/07 01:54:26;;;;;;;25.67;11.87;;;;;;;;;;766532;183;918990;-69
2022/01/07 01:56:52;;;;;;;25.12;13.73;;;;;;;;;;762490;183;918653;-69
2022/01/07 01:59:23;;;;;;;22.77;12.37;;;;;;;;;;768369;183;919090;-69
2022/01/07 02:01:49;;;;;;;21.83;12.80;;;;;;;;;;763550;183;921679;-69
2022/01/07 02:04:14;;;;;;;23.37;15.40;;;;;;;;;;764006;181;920418;-69
2022/01/07 02:06:40;;;;;;;31.37;16.20;;;;;;;;;;771725;182;918421;-69
2022/01/07 02:09:06;;;;;;;26.60;16.90;;;;;;;;;;769812;182;922554;-69
2022/01/07 02:11:32;;;;;;;27.60;16.03;;;;;;;;;;770471;182;919158;-69
2022/01/07 02:13:58;;;;;;;29.80;17.03;;;;;;;;;;769364;182;918757;-69
2022/01/07 02:16:26;;;;;;;22.20;14.63;;;;;;;;;;769365;182;918079;-69
2022/01/07 02:18:52;;;;;;;24.60;16.23;;;;;;;;;;766669;182;918720;-69
2022/01/07 02:21:18;;;;;;;29.63;16.70;;;;;;;;;;769763;182;918959;-69
2022/01/07 02:23:44;;;;;;;32.80;17.07;;;;;;;;;;773226;182;951310;-69
2022/01/07 02:26:11;;;;;;;35.30;16.40;;;;;;;;;;765524;183;1019290;-69
2022/01/07 02:28:35;;;;;;;24.60;15.37;;;;;;;;;;765349;182;919137;-69
2022/01/07 02:31:01;;;;;;;31.43;16.80;;;;;;;;;;771297;182;616117;-68
2022/01/07 02:33:27;;;;;;;30.83;16.33;;;;;;;;;;764605;183;917532;-69
2022/01/07 02:35:53;;;;;;;31.93;15.97;;;;;;;;;;767682;182;1021302;-69
2022/01/07 02:38:19;;;;;;;28.77;16.20;;;;;;;;;;767709;182;918811;-69
2022/01/07 02:40:45;;;;;;;26.30;14.40;;;;;;;;;;765254;184;918517;-69
2022/01/07 02:43:11;;;;;;;23.57;15.20;;;;;;;;;;770338;182;918034;-69
2022/01/07 02:45:36;;;;;;;23.50;14.07;;;;;;;;;;769700;182;814906;-69
2022/01/07 02:48:03;;;;;;;33.53;17.60;;;;;;;;;;771662;183;645132;-69
2022/01/07 02:50:28;;;;;;;37.10;22.70;;;;;;;;;;771314;180;636419;-69
2022/01/07 02:52:54;;;;;;;40.40;21.97;;;;;;;;;;771276;183;633057;-69
2022/01/07 02:55:20;;;;;;;33.57;18.23;;;;;;;;;;775862;183;629467;-70
2022/01/07 02:57:46;;;;;;;34.33;19.55;;;;;;;;;;766603;183;919835;-69
2022/01/07 03:00:12;;;;;;;40.43;21.73;;;;;;;;;;764105;183;1027580;-69
2022/01/07 03:02:38;;;;;;;44.97;22.40;;;;;;;;;;763751;183;919046;-68
2022/01/07 03:05:05;;;;;;;39.13;24.30;;;;;;;;;;767795;184;920351;-69
2022/01/07 03:07:30;;;;;;;41.67;23.47;;;;;;;;;;766122;182;915408;-70
2022/01/07 03:09:56;;;;;;;42.33;22.70;;;;;;;;;;766684;183;916104;-69
2022/01/07 03:12:22;;;;;;;36.70;23.30;;;;;;;;;;772206;183;910356;-69
2022/01/07 03:14:49;;;;;;;45.47;25.40;;;;;;;;;;765996;183;915290;-69
2022/01/07 03:17:13;;;;;;;39.30;24.30;;;;;;;;;;769628;182;915530;-69
2022/01/07 03:19:39;;;;;;;48.50;22.40;;;;;;;;;;774814;182;915735;-68
2022/01/07 03:22:05;;;;;;;44.80;23.57;;;;;;;;;;770074;182;915812;-69
2022/01/07 03:24:31;;;;;;;39.63;21.03;;;;;;;;;;768580;182;916020;-68
2022/01/07 03:26:58;;;;;;;42.23;25.00;;;;;;;;;;773465;182;1018412;-68
2022/01/07 03:29:24;;;;;;;33.17;21.93;;;;;;;;;;775014;182;915927;-68
2022/01/07 03:31:49;;;;;;;31.80;20.12;;;;;;;;;;766441;180;918607;-68
2022/01/07 03:34:16;;;;;;;36.10;21.30;;;;;;;;;;764322;182;919663;-69
2022/01/07 03:36:41;;;;;;;28.57;18.43;;;;;;;;;;770811;183;918239;-68
2022/01/07 03:39:08;;;;;;;29.03;18.73;;;;;;;;;;766805;182;919309;-69
2022/01/07 03:41:33;;;;;;;26.70;19.20;;;;;;;;;;765046;182;918900;-69
2022/01/07 03:43:59;;;;;;;26.70;20.43;;;;;;;;;;769125;183;917942;-69
2022/01/07 03:46:25;;;;;;;32.30;21.67;;;;;;;;;;766140;182;920327;-68
2022/01/07 03:48:51;;;;;;;26.67;18.63;;;;;;;;;;768246;182;917701;-68
2022/01/07 03:51:16;;;;;;;33.50;20.30;;;;;;;;;;771712;179;917214;-68
2022/01/07 03:53:42;;;;;;;32.87;19.30;;;;;;;;;;764752;182;918588;-68
2022/01/07 03:56:11;;;;;;;35.47;21.93;;;;;;;;;;764348;183;920226;-68
2022/01/07 03:58:34;;;;;;;42.30;24.57;;;;;;;;;;763752;183;923418;-68
2022/01/07 04:01:00;;;;;;;39.27;23.67;;;;;;;;;;772558;183;912232;-68
2022/01/07 04:03:26;;;;;;;33.93;22.00;;;;;;;;;;764997;183;911717;-68
2022/01/07 04:05:52;;;;;;;33.67;23.90;;;;;;;;;;767366;182;919984;-68
2022/01/07 04:08:17;;;;;;;32.60;21.40;;;;;;;;;;771455;183;916631;-68
2022/01/07 04:10:43;;;;;;;30.00;19.37;;;;;;;;;;763038;182;922038;-67
2022/01/07 04:13:09;;;;;;;25.93;17.60;;;;;;;;;;764580;182;919615;-67
2022/01/07 04:15:35;;;;;;;25.97;15.10;;;;;;;;;;764837;183;919231;-67
2022/01/07 04:18:01;;;;;;;27.27;16.40;;;;;;;;;;752091;183;921493;-67
2022/01/07 04:20:27;;;;;;;24.50;16.20;;;;;;;;;;757357;182;919840;-67
2022/01/07 04:22:53;;;;;;;23.55;14.55;;;;;;;;;;763974;183;918764;-66
2022/01/07 04:25:18;;;;;;;23.63;16.00;;;;;;;;;;765547;183;918759;-68
2022/01/07 04:27:45;;;;;;;27.93;19.80;;;;;;;;;;763218;182;919138;-68
2022/01/07 04:30:11;;;;;;;28.00;19.83;;;;;;;;;;765845;182;921332;-68
2022/01/07 04:32:37;;;;;;;25.70;18.27;;;;;;;;;;771230;182;918766;-67
2022/01/07 04:35:03;;;;;;;32.53;17.80;;;;;;;;;;767609;180;920810;-68
2022/01/07 04:37:28;;;;;;;32.63;19.87;;;;;;;;;;768892;182;919649;-69
2022/01/07 04:39:54;;;;;;;45.93;21.33;;;;;;;;;;773847;182;919012;-68
2022/01/07 04:42:20;;;;;;;34.30;21.60;;;;;;;;;;766729;182;1020899;-68
2022/01/07 04:44:46;;;;;;;40.50;24.40;;;;;;;;;;766210;182;1017666;-68
2022/01/07 04:47:12;;;;;;;36.45;23.15;;;;;;;;;;767618;182;918056;-67
2022/01/07 04:49:38;;;;;;;39.90;24.97;;;;;;;;;;765730;183;920534;-67
2022/01/07 04:52:04;;;;;;;31.30;21.60;;;;;;;;;;761607;182;919515;-68
2022/01/07 04:54:30;;;;;;;36.43;22.77;;;;;;;;;;766730;182;918999;-68
2022/01/07 04:56:56;;;;;;;28.63;19.83;;;;;;;;;;769193;182;919041;-68
2022/01/07 04:59:21;;;;;;;31.93;20.03;;;;;;;;;;764959;182;921913;-68
2022/01/07 05:01:47;;;;;;;33.40;18.63;;;;;;;;;;770170;182;919177;-68
2022/01/07 05:04:13;;;;;;;30.05;17.35;;;;;;;;;;770164;182;918444;-68
2022/01/07 05:06:44;;;;;;;31.13;17.67;;;;;;;;;;765476;181;1020479;-67
2022/01/07 05:09:10;;;;;;;30.47;18.43;;;;;;;;;;766113;182;918789;-67
2022/01/07 05:11:35;;;;;;;24.93;18.00;;;;;;;;;;765827;182;916645;-67
2022/01/07 05:14:01;;;;;;;35.40;19.03;;;;;;;;;;775001;182;628996;-68
2022/01/07 05:16:28;;;;;;;30.13;17.90;;;;;;;;;;768200;182;919145;-67
2022/01/07 05:18:54;;;;;;;24.50;16.30;;;;;;;;;;763650;182;918446;-68
2022/01/07 05:21:19;;;;;;;27.00;16.40;;;;;;;;;;771836;179;906027;-67
2022/01/07 05:23:45;;;;;;;25.57;17.20;;;;;;;;;;766065;182;918425;-67
2022/01/07 05:26:10;;;;;;;28.50;16.67;;;;;;;;;;766370;183;919180;-68
2022/01/07 05:28:36;;;;;;;25.07;16.20;;;;;;;;;;769198;182;918097;-67
2022/01/07 05:31:03;;;;;;;35.30;19.50;;;;;;;;;;766998;183;942378;-68
2022/01/07 05:33:28;;;;;;;35.33;18.73;;;;;;;;;;767258;182;997483;-67
2022/01/07 05:35:54;;;;;;;30.23;16.77;;;;;;;;;;766207;182;918844;-65
2022/01/07 05:38:20;;;;;;;26.10;16.10;;;;;;;;;;773570;180;919327;-68
2022/01/07 05:40:45;;;;;;;30.37;16.17;;;;;;;;;;768178;179;919746;-67
2022/01/07 05:43:11;;;;;;;36.40;18.73;;;;;;;;;;768670;182;924293;-67
2022/01/07 05:45:37;;;;;;;33.27;19.67;;;;;;;;;;772771;182;917956;-67
2022/01/07 05:48:03;;;;;;;37.93;21.63;;;;;;;;;;766245;182;918348;-67
2022/01/07 05:50:29;;;;;;;40.00;19.27;;;;;;;;;;766531;180;1022200;-67
2022/01/07 05:52:55;;;;;;;37.60;21.60;;;;;;;;;;770684;183;820911;-67
2022/01/07 05:55:21;;;;;;;53.17;22.23;;;;;;;;;;769214;183;637502;-68
2022/01/07 05:57:47;;;;;;;34.57;19.00;;;;;;;;;;771179;182;643679;-67
2022/01/07 06:00:12;;;;;;;27.10;16.37;;;;;;;;;;774962;182;630250;-67
2022/01/07 06:02:38;;;;;;;31.57;17.50;;;;;;;;;;770710;182;637080;-67
2022/01/07 06:05:04;;;;;;;24.70;17.30;;;;;;;;;;766961;183;622727;-67
2022/01/07 06:07:30;;;;;;;28.80;20.00;;;;;;;;;;769113;182;635198;-67
2022/01/07 06:09:56;;;;;;;28.53;17.70;;;;;;;;;;774291;183;636875;-67
2022/01/07 06:12:22;;;;;;;28.43;16.80;;;;;;;;;;770739;182;631018;-67
2022/01/07 06:14:48;;;;;;;28.53;17.60;;;;;;;;;;764531;183;919262;-66
2022/01/07 06:17:13;;;;;;;26.27;16.67;;;;;;;;;;770147;182;919275;-65
2022/01/07 06:19:39;;;;;;;26.30;17.27;;;;;;;;;;768781;182;664508;-67
2022/01/07 06:22:05;;;;;;;24.83;17.13;;;;;;;;;;766111;182;919255;-67
2022/01/07 06:24:31;;;;;;;28.70;16.43;;;;;;;;;;773078;182;917591;-66
2022/01/07 06:26:58;;;;;;;28.10;15.87;;;;;;;;;;768310;182;954525;-67
2022/01/07 06:29:23;;;;;;;28.53;17.47;;;;;;;;;;771902;182;916616;-66
2022/01/07 06:31:49;;;;;;;24.13;15.83;;;;;;;;;;767303;183;1021533;-66
2022/01/07 06:34:16;;;;;;;27.30;16.27;;;;;;;;;;770379;180;919058;-66
2022/01/07 06:36:40;;;;;;;26.92;16.12;;;;;;;;;;763111;182;918757;-66
2022/01/07 06:39:06;;;;;;;28.43;16.97;;;;;;;;;;766345;182;918033;-67
2022/01/07 06:41:32;;;;;;;32.00;16.37;;;;;;;;;;770546;182;919102;-66
2022/01/07 06:43:58;;;;;;;28.07;16.70;;;;;;;;;;764069;182;919858;-67
2022/01/07 06:46:24;;;;;;;37.60;25.40;;;;;;;;;;764999;182;918229;-66
2022/01/07 06:48:49;;;;;;;42.33;26.95;;;;;;;;;;769769;182;921971;-66
2022/01/07 06:51:15;;;;;;;56.60;31.73;;;;;;;;;;768154;181;921239;-66
2022/01/07 06:53:41;;;;;;;54.10;34.20;;;;;;;;;;766551;182;1038925;-66
2022/01/07 06:56:07;;;;;;;55.10;33.53;;;;;;;;;;769467;182;918231;-66
2022/01/07 06:58:33;;;;;;;58.23;36.33;;;;;;;;;;766608;182;921925;-66
2022/01/07 07:00:59;;;;;;;55.17;36.43;;;;;;;;;;765979;182;917196;-66
2022/01/07 07:03:25;;;;;;;52.07;35.87;;;;;;;;;;768374;182;907495;-66
2022/01/07 07:05:51;;;;;;;56.53;33.53;;;;;;;;;;772789;183;908584;-66
2022/01/07 07:08:17;;;;;;;51.85;34.28;;;;;;;;;;761608;182;919334;-66
2022/01/07 07:10:42;;;;;;;51.40;30.50;;;;;;;;;;763429;183;921532;-67
2022/01/07 07:13:08;;;;;;;56.77;37.63;;;;;;;;;;772256;183;918831;-67
2022/01/07 07:15:34;;;;;;;55.58;36.03;;;;;;;;;;768707;182;920179;-65
2022/01/07 07:18:00;;;;;;;55.90;35.77;;;;;;;;;;768035;182;918895;-66
2022/01/07 07:20:26;;;;;;;65.63;34.07;;;;;;;;;;773071;182;918664;-66
2022/01/07 07:22:52;;;;;;;62.47;34.07;;;;;;;;;;766025;183;919039;-66
2022/01/07 07:25:18;;;;;;;56.43;32.73;;;;;;;;;;759908;183;913449;-67
2022/01/07 07:27:44;;;;;;;55.87;33.10;;;;;;;;;;764860;182;912332;-66
2022/01/07 07:30:11;;;;;;;51.90;33.03;;;;;;;;;;771466;182;1014485;-66
2022/01/07 07:32:38;;;;;;;57.60;33.53;;;;;;;;;;766655;182;918951;-66
2022/01/07 07:36:26;;;;;;;63.07;34.43;;;;;;;;;;766470;182;918441;-66
2022/01/07 07:37:29;;;;;;;63.37;30.90;;;;;;;;;;771246;182;919178;-65
2022/01/07 07:39:55;;;;;;;50.57;32.60;;;;;;;;;;764612;182;920058;-67
2022/01/07 07:42:21;;;;;;;49.80;31.13;;;;;;;;;;765013;182;918489;-66
2022/01/07 07:44:47;;;;;;;56.27;35.43;;;;;;;;;;768571;183;918983;-66
2022/01/07 07:47:13;;;;;;;76.03;44.28;;;;;;;;;;762162;183;918722;-66
2022/01/07 07:49:38;;;;;;;73.67;45.30;;;;;;;;;;764660;182;918455;-66
2022/01/07 07:52:04;;;;;;;80.57;46.10;;;;;;;;;;764086;182;919078;-65
2022/01/07 07:54:30;;;;;;;67.37;45.38;;;;;;;;;;771610;183;918816;-66
2022/01/07 07:56:58;;;;;;;64.47;42.90;;;;;;;;;;763684;183;919377;-65
2022/01/07 07:59:22;;;;;;;74.40;42.97;;;;;;;;;;767457;182;919541;-65
2022/01/07 08:01:48;;;;;;;64.63;44.27;;;;;;;;;;773546;181;918037;-65
2022/01/07 08:04:15;;;;;;;69.40;42.67;;;;;;;;;;767722;182;918453;-65
2022/01/07 08:06:39;;;;;;;72.68;45.50;;;;;;;;;;766442;182;918625;-64
2022/01/07 08:09:05;;;;;;;62.83;41.30;;;;;;;;;;770140;182;918759;-65
2022/01/07 08:11:38;;;;;;;53.93;36.47;;;;;;;;;;769109;180;1020399;-65
2022/01/07 08:16:29;;;;;;;55.57;35.90;;;;;;;;;;765343;182;921483;-65
2022/01/07 08:18:54;;;;;;;62.87;34.93;;;;;;;;;;770381;183;918324;-64
2022/01/07 08:21:20;;;;;;;58.13;33.20;;;;;;;;;;765237;182;919385;-63
2022/01/07 08:23:46;;;;;;;52.23;31.07;;;;;;;;;;766248;182;918497;-64
2022/01/07 08:26:12;;;;;;;67.00;40.30;;;;;;;;;;774963;183;634159;-64
2022/01/07 08:28:42;;;;;;;62.73;38.20;;;;;;;;;;766105;183;637017;-64
2022/01/07 08:31:26;;;;;;;66.33;37.00;;;;;;;;;;763278;182;922509;-63
2022/01/07 08:36:15;;;;;;;47.80;28.23;;;;;;;;;;761305;183;918821;-64
2022/01/07 08:38:41;;;;;;;55.67;32.90;;;;;;;;;;769385;183;918609;-63
2022/01/07 08:41:06;;;;;;;53.97;30.77;;;;;;;;;;764899;183;920089;-63
2022/01/07 08:43:32;;;;;;;41.60;26.70;;;;;;;;;;765711;183;918945;-63
2022/01/07 08:45:58;;;;;;;47.65;23.67;;;;;;;;;;766193;181;919726;-62
2022/01/07 08:48:24;;;;;;;45.53;22.80;;;;;;;;;;761771;182;918571;-63
2022/01/07 08:50:50;;;;;;;36.10;21.35;;;;;;;;;;766098;183;919476;-65
2022/01/07 08:53:16;;;;;;;36.80;20.60;;;;;;;;;;771834;183;917459;-63
2022/01/07 08:55:41;;;;;;;37.87;20.80;;;;;;;;;;764803;182;920338;-63
2022/01/07 08:58:07;;;;;;;38.83;19.85;;;;;;;;;;767290;183;919641;-64
2022/01/07 09:00:33;;;;;;;31.90;17.73;;;;;;;;;;768163;183;918785;-64
2022/01/07 09:03:00;;;;;;;30.63;19.33;;;;;;;;;;763062;184;921833;-63
2022/01/07 09:05:25;;;;;;;34.23;15.90;;;;;;;;;;762698;181;919304;-63
2022/01/07 09:07:51;;;;;;;39.37;18.87;;;;;;;;;;764536;183;920059;-64
2022/01/07 09:10:17;;;;;;;26.87;15.77;;;;;;;;;;775203;182;823151;-66
2022/01/07 09:12:43;;;;;;;41.50;17.93;;;;;;;;;;770855;182;917167;-65
2022/01/07 09:15:08;;;;;;;29.63;16.43;;;;;;;;;;768352;181;916798;-66
2022/01/07 09:17:35;;;;;;;26.62;15.65;;;;;;;;;;760412;183;919426;-65
2022/01/07 09:20:01;;;;;;;16.50;10.53;;;;;;;;;;754596;184;914064;-67
2022/01/07 09:22:26;;;;;;;21.50;11.40;;;;;;;;;;751969;184;917917;-66
2022/01/07 09:24:52;;;;;;;16.50;10.20;;;;;;;;;;769262;183;919778;-67
2022/01/07 09:27:18;;;;;;;15.90;11.60;;;;;;;;;;774286;180;916700;-68
2022/01/07 09:29:44;;;;;;;25.50;11.17;;;;;;;;;;763813;183;918782;-68
2022/01/07 09:32:10;;;;;;;22.27;10.23;;;;;;;;;;763328;183;918564;-70
2022/01/07 09:34:36;;;;;;;19.50;10.47;;;;;;;;;;768984;183;918878;-70
2022/01/07 09:37:02;;;;;;;18.10;10.50;;;;;;;;;;765489;183;918095;-70
2022/01/07 09:39:27;;;;;;;19.93;9.07;;;;;;;;;;768526;182;919273;-71
2022/01/07 09:41:53;;;;;;;18.43;9.23;;;;;;;;;;770048;183;918348;-71
2022/01/07 09:44:19;;;;;;;24.70;10.07;;;;;;;;;;772170;182;619975;-74
2022/01/07 09:46:45;;;;;;;17.70;8.53;;;;;;;;;;771579;182;626481;-74
2022/01/07 09:49:11;;;;;;;11.13;7.47;;;;;;;;;;777431;182;614570;-74
2022/01/07 09:51:37;;;;;;;14.57;8.30;;;;;;;;;;772131;179;625490;-74
2022/01/07 09:54:03;;;;;;;23.80;9.73;;;;;;;;;;771653;182;621026;-74
2022/01/07 09:56:29;;;;;;;13.67;7.80;;;;;;;;;;770268;180;626133;-74
2022/01/07 09:58:55;;;;;;;13.93;7.63;;;;;;;;;;774383;183;627363;-73
2022/01/07 10:01:23;;;;;;;14.83;8.07;;;;;;;;;;770133;183;761009;-73
2022/01/07 10:03:47;;;;;;;11.40;6.10;;;;;;;;;;766785;183;633731;-73
2022/01/07 10:06:14;;;;;;;9.93;6.00;;;;;;;;;;771527;183;917878;-74
2022/01/07 10:08:40;;;;;;;12.80;6.00;;;;;;;;;;767293;183;918210;-71
2022/01/07 10:11:08;;;;;;;8.97;5.07;;;;;;;;;;762794;183;919220;-73
2022/01/07 10:13:34;;;;;;;11.43;6.30;;;;;;;;;;763566;183;1000835;-73
2022/01/07 10:16:00;;;;;;;11.57;6.00;;;;;;;;;;757956;184;919338;-73
2022/01/07 10:18:25;;;;;;;12.27;6.30;;;;;;;;;;750744;184;919061;-73
2022/01/07 10:20:51;;;;;;;9.97;5.87;;;;;;;;;;746348;185;917813;-71
2022/01/07 10:23:23;;;;;;;10.60;5.20;;;;;;;;;;770790;183;918945;-72
2022/01/07 10:25:43;;;;;;;9.13;5.60;;;;;;;;;;767341;181;918576;-71
2022/01/07 10:28:09;;;;;;;9.87;5.77;;;;;;;;;;766821;182;1021696;-72
2022/01/07 10:30:35;;;;;;;10.30;6.00;;;;;;;;;;773308;182;918744;-71
2022/01/07 10:33:01;;;;;;;6.90;4.80;;;;;;;;;;769366;182;918747;-70
2022/01/07 10:35:27;;;;;;;22.00;6.73;;;;;;;;;;765144;183;925129;-71
2022/01/07 10:37:55;;;;;;;9.27;4.75;;;;;;;;;;766832;183;963279;-70
2022/01/07 10:40:23;;;;;;;8.17;4.70;;;;;;;;;;753234;183;918128;-70
2022/01/07 10:42:50;;;;;;;6.00;4.70;;;;;;;;;;751072;184;920263;-70
2022/01/07 10:45:14;;;;;;;9.50;4.50;;;;;;;;;;766797;181;919335;-70
2022/01/07 10:47:40;;;;;;;6.40;4.30;;;;;;;;;;775160;178;919460;-70
2022/01/07 10:50:12;;;;;;;8.80;4.23;;;;;;;;;;778375;179;919783;-71
2022/01/07 10:52:38;;;;;;;8.00;4.57;;;;;;;;;;781575;176;919444;-71
2022/01/07 10:55:06;;;;;;;8.47;4.30;;;;;;;;;;779691;176;919270;-71
2022/01/07 10:57:35;;;;;;;6.23;3.70;;;;;;;;;;791093;176;914532;-71
2022/01/07 11:00:05;;;;;;;11.60;4.87;;;;;;;;;;787674;176;914551;-72
2022/01/07 11:02:33;;;;;;;8.13;4.37;;;;;;;;;;792129;176;946103;-72
2022/01/07 11:04:58;;;;;;;6.93;4.13;;;;;;;;;;782060;176;916454;-72
2022/01/07 11:07:24;;;;;;;13.53;5.20;;;;;;;;;;795997;176;919464;-71
2022/01/07 11:09:51;;;;;;;8.90;4.33;;;;;;;;;;781707;176;911094;-72
2022/01/07 11:12:16;;;;;;;15.93;5.77;;;;;;;;;;786143;176;916026;-72
2022/01/07 11:14:42;;;;;;;20.70;3.77;;;;;;;;;;790971;176;1018073;-73
2022/01/07 11:17:10;;;;;;;8.33;4.17;;;;;;;;;;776705;176;919243;-72
2022/01/07 11:19:35;;;;;;;8.75;5.18;;;;;;;;;;785833;177;918246;-73
2022/01/07 11:22:00;;;;;;;11.03;5.10;;;;;;;;;;783619;177;919662;-73
2022/01/07 11:24:33;;;;;;;9.13;4.95;;;;;;;;;;779287;177;919070;-73
2022/01/07 11:26:58;;;;;;;12.80;5.70;;;;;;;;;;783228;177;919141;-73
2022/01/07 11:29:23;;;;;;;8.33;4.50;;;;;;;;;;778600;177;918803;-73
2022/01/07 11:31:50;;;;;;;10.40;5.20;;;;;;;;;;786798;176;918684;-73
2022/01/07 11:34:25;;;;;;;7.80;5.83;;;;;;;;;;780652;176;919468;-71
2022/01/07 11:36:51;;;;;;;11.70;4.97;;;;;;;;;;787988;174;952425;-73
2022/01/07 11:39:17;;;;;;;10.17;5.57;;;;;;;;;;781503;176;919214;-72
2022/01/07 11:41:44;;;;;;;10.77;4.93;;;;;;;;;;784999;176;921595;-71
2022/01/07 11:44:09;;;;;;;10.90;5.30;;;;;;;;;;779853;176;918792;-71
2022/01/07 11:46:35;;;;;;;15.13;5.77;;;;;;;;;;778812;176;918092;-69
2022/01/07 11:49:01;;;;;;;12.70;7.07;;;;;;;;;;785369;176;916124;-70
2022/01/07 11:51:33;;;;;;;11.50;5.93;;;;;;;;;;779197;176;920318;-70
2022/01/07 11:53:59;;;;;;;12.73;6.83;;;;;;;;;;778476;176;918460;-69
2022/01/07 11:56:25;;;;;;;14.43;8.03;;;;;;;;;;782011;176;918628;-68
2022/01/07 11:58:51;;;;;;;10.73;6.30;;;;;;;;;;786229;177;897048;-69
2022/01/07 12:01:22;;;;;;;11.30;6.37;;;;;;;;;;793003;177;643196;-69
2022/01/07 12:03:49;;;;;;;12.80;6.10;;;;;;;;;;785864;176;633662;-68
2022/01/07 12:06:32;;;;;;;17.60;6.73;;;;;;;;;;779708;176;919264;-68
2022/01/07 12:09:19;;;;;;;13.63;7.20;;;;;;;;;;782718;176;918289;-69
2022/01/07 12:11:43;;;;;;;15.93;6.87;;;;;;;;;;779225;177;919397;-67
2022/01/07 12:14:11;;;;;;;12.00;5.90;;;;;;;;;;782694;177;919011;-68
2022/01/07 12:16:36;;;;;;;14.50;6.83;;;;;;;;;;779373;177;919043;-67
2022/01/07 12:19:17;;;;;;;11.60;7.07;;;;;;;;;;779324;177;918727;-66
2022/01/07 12:21:42;;;;;;;14.13;7.93;;;;;;;;;;776490;176;915144;-66
2022/01/07 12:24:08;;;;;;;14.03;7.33;;;;;;;;;;782987;177;1021139;-66
2022/01/07 12:26:34;;;;;;;11.70;6.90;;;;;;;;;;779120;176;916542;-66
2022/01/07 12:29:00;;;;;;;12.17;7.40;;;;;;;;;;777644;177;915110;-65
2022/01/07 12:31:26;;;;;;;15.77;6.93;;;;;;;;;;781147;176;919392;-66
2022/01/07 12:33:53;;;;;;;11.60;6.28;;;;;;;;;;783517;176;918447;-68
2022/01/07 12:36:27;;;;;;;11.97;6.30;;;;;;;;;;779414;177;919246;-65
2022/01/07 12:38:58;;;;;;;8.80;5.80;;;;;;;;;;780149;177;919857;-66
2022/01/07 12:41:24;;;;;;;11.20;6.65;;;;;;;;;;778818;177;919356;-64
2022/01/07 12:43:49;;;;;;;11.20;5.23;;;;;;;;;;788783;176;918143;-65
2022/01/07 12:46:18;;;;;;;13.37;6.90;;;;;;;;;;782004;176;915429;-65
2022/01/07 12:48:41;;;;;;;10.43;6.73;;;;;;;;;;781082;177;916682;-65
2022/01/07 12:51:07;;;;;;;9.20;5.97;;;;;;;;;;787932;176;920331;-64
2022/01/07 12:53:33;;;;;;;14.65;6.90;;;;;;;;;;780926;176;915370;-64
2022/01/07 12:56:04;;;;;;;12.30;6.03;;;;;;;;;;770456;176;916255;-65
2022/01/07 12:58:30;;;;;;;14.10;6.93;;;;;;;;;;787488;177;1016525;-64
2022/01/07 13:00:56;;;;;;;14.23;9.07;;;;;;;;;;779598;176;908342;-64
2022/01/07 13:03:25;;;;;;;11.80;6.23;;;;;;;;;;779341;176;914894;-64
2022/01/07 13:05:51;;;;;;;12.20;7.03;;;;;;;;;;780565;176;916565;-64
2022/01/07 13:08:17;;;;;;;15.60;6.60;;;;;;;;;;785715;176;869541;-64
2022/01/07 13:10:42;;;;;;;19.33;8.60;;;;;;;;;;779626;176;920719;-64
2022/01/07 13:13:09;;;;;;;11.07;5.93;;;;;;;;;;778484;177;918729;-64
2022/01/07 13:15:39;;;;;;;10.77;5.90;;;;;;;;;;790973;174;1021095;-64
2022/01/07 13:18:10;;;;;;;13.97;7.87;;;;;;;;;;783847;176;918229;-64
2022/01/07 13:20:36;;;;;;;11.03;5.07;;;;;;;;;;778334;177;919876;-64
2022/01/07 13:23:02;;;;;;;8.40;5.50;;;;;;;;;;779118;177;914850;-64
2022/01/07 13:25:28;;;;;;;8.87;5.30;;;;;;;;;;783050;177;918933;-63
2022/01/07 13:27:54;;;;;;;6.43;4.87;;;;;;;;;;777399;177;918591;-64
2022/01/07 13:30:19;;;;;;;9.33;4.17;;;;;;;;;;776573;177;916673;-65
2022/01/07 13:32:45;;;;;;;7.60;4.40;;;;;;;;;;784184;177;914153;-64
2022/01/07 13:35:12;;;;;;;14.73;4.90;;;;;;;;;;781457;176;920050;-64
2022/01/07 13:37:37;;;;;;;4.93;3.13;;;;;;;;;;781279;176;918723;-64
2022/01/07 13:40:04;;;;;;;7.70;2.87;;;;;;;;;;781582;174;941464;-65
2022/01/07 13:42:30;;;;;;;3.80;1.60;;;;;;;;;;790799;175;691931;-65
2022/01/07 13:44:55;;;;;;;6.30;2.40;;;;;;;;;;786251;176;918741;-66
2022/01/07 13:47:22;;;;;;;8.10;2.50;;;;;;;;;;780394;176;918706;-65
2022/01/07 13:49:48;;;;;;;5.23;2.20;;;;;;;;;;782502;177;918906;-64
2022/01/07 13:52:13;;;;;;;7.70;2.50;;;;;;;;;;784906;176;919839;-66
2022/01/07 13:54:39;;;;;;;2.70;1.90;;;;;;;;;;777565;177;919631;-65
2022/01/07 13:57:05;;;;;;;5.43;2.43;;;;;;;;;;783702;178;919339;-64
2022/01/07 13:59:37;;;;;;;4.83;1.90;;;;;;;;;;758262;183;918110;-65
2022/01/07 14:02:03;;;;;;;3.90;2.33;;;;;;;;;;784094;176;919954;-64
2022/01/07 14:04:35;;;;;;;4.50;2.20;;;;;;;;;;781575;176;919883;-64
2022/01/07 14:07:00;;;;;;;5.83;2.57;;;;;;;;;;785990;176;917540;-64